Pagrindinis puslapis
METAR-TAF:

METAR-TAF

Oro uostai :

Posadasas, Argentina

platuma: 27-22S, ilguma: 055-58W, Aukštis: 131 m

Dabartinis oras

Ataskaita buvo paskelbta 40 minutes, ne 13:00 UTC
Vėjas 6 kt iš Rytų/Šiaurės Rytų
Temperatūra 20°C
Drėgmė 94%
Slėgis 1004 hPa
Matomumas: 1500 m
Išsisklaidę debesys ne aukštis 4000 ft, Liūtiniai kamuoliniai debesys.
Apsiniaukę ne aukštis 4500 ft
perkūnija, lietus, rūkana

METAR: SARP 231300Z 07006KT 1500 +TSRA BR SCT040CB OVC045 20/19 Q1004 RMK CB OBS ON MET

Laikas: 10:40 (13:40 UTC)

Prognozė

Ataskaita buvo paskelbta 2 valandos ir 40 minutes, ne 11:00 UTC
Prognozė galioja nuo 23 metu 12 UTC su 24 metu 12 UTC
Vėjas 10 kt iš Pietvakarių
Matomumas: 5000 m
Apsiniaukę ne aukštis 3500 ft
Mažai debesys ne aukštis 5000 ft, Liūtiniai kamuoliniai debesys.
perkūnija, lietus
Tapsmas
nuo 24 metu 03 UTC su 24 metu 05 UTC
Vėjas 10 kt iš Pietų
Matomumas 10 km arba daugiau
Išsisklaidę debesys ne aukštis 3000 ft

TAF: SARP 231100Z 2312/2412 23010KT 5000 TSRA OVC035 FEW050CB TX23/2319Z TN15/2410Z BECMG 2403/2405 18010KT 9999 SCT030

Orai ataskaitas ir orų prognozės (METAR, TAF).

turimą stotys yra geltonos ir raudonos taškus žemėlapyje.

Perkelti pele per norėdami pamatyti stoties vardą.

Tada spustelėkite, norėdami matyti oro stebėjimo ir prognozės.

Norėdami pakeisti žemėlapį: spustelėkite ant žalios mygtukų su juodo kryžiaus žemyn,; žalią mygtuką su brūkšneliu, jei norite nutolinti; arba žalių rodyklių gretimoms žemėlapius.


METAR-TAF: